createdAt,value
2019-04-10T00:02:03.070Z,98781.28
2019-04-10T00:04:31.539Z,98777.73
2019-04-10T00:07:10.419Z,98784.92
2019-04-10T00:09:30.738Z,98783.63
2019-04-10T00:11:59.290Z,98782.89
2019-04-10T00:14:28.267Z,98774.04
2019-04-10T00:16:56.585Z,98772.09
2019-04-10T00:19:24.828Z,98770.76
2019-04-10T00:21:53.594Z,98773.13
2019-04-10T00:24:22.034Z,98775.06
2019-04-10T00:26:50.258Z,98775.43
2019-04-10T00:29:18.550Z,98767.91
2019-04-10T00:31:46.791Z,98764.24
2019-04-10T00:34:15.628Z,98768.56
2019-04-10T00:36:44.201Z,98767.74
2019-04-10T00:39:12.673Z,98767.34
2019-04-10T00:41:40.885Z,98773.14
2019-04-10T00:44:09.161Z,98768.14
2019-04-10T00:46:38.003Z,98774.67
2019-04-10T00:49:07.186Z,98775.95
2019-04-10T00:51:35.669Z,98768.50
2019-04-10T00:54:03.954Z,98770.98
2019-04-10T00:56:32.598Z,98768.39
2019-04-10T00:59:01.738Z,98767.58
2019-04-10T01:01:30.156Z,98762.38
2019-04-10T01:03:58.401Z,98761.46
2019-04-10T01:06:26.671Z,98769.70
2019-04-10T01:08:55.168Z,98763.80
2019-04-10T01:11:23.669Z,98763.45
2019-04-10T01:13:51.899Z,98759.17
2019-04-10T01:16:20.178Z,98757.19
2019-04-10T01:18:48.433Z,98752.18
2019-04-10T01:21:16.693Z,98756.20
2019-04-10T01:23:45.512Z,98763.09
2019-04-10T01:26:14.843Z,98757.62
2019-04-10T01:28:43.211Z,98763.64
2019-04-10T01:31:11.510Z,98755.80
2019-04-10T01:33:40.818Z,98759.23
2019-04-10T01:36:09.322Z,98756.09
2019-04-10T01:38:37.791Z,98759.40
2019-04-10T01:41:06.438Z,98758.39
2019-04-10T01:43:35.098Z,98766.03
2019-04-10T01:46:04.189Z,98763.28
2019-04-10T01:48:32.941Z,98753.13
2019-04-10T01:51:01.250Z,98757.69
2019-04-10T01:53:30.052Z,98761.55
2019-04-10T01:55:59.590Z,98754.16
2019-04-10T01:58:28.117Z,98754.30
2019-04-10T02:01:01.769Z,98749.03
2019-04-10T02:03:30.403Z,98749.27
2019-04-10T02:05:58.633Z,98751.38
2019-04-10T02:08:26.901Z,98753.46
2019-04-10T02:10:55.211Z,98750.83
2019-04-10T02:13:23.565Z,98750.16
2019-04-10T02:15:52.349Z,98747.42
2019-04-10T02:18:21.371Z,98744.73
2019-04-10T02:20:49.885Z,98752.51
2019-04-10T02:23:19.238Z,98751.31
2019-04-10T02:25:47.575Z,98755.73
2019-04-10T02:28:15.814Z,98747.89
2019-04-10T02:30:44.094Z,98752.13
2019-04-10T02:33:13.802Z,98755.88
2019-04-10T02:35:43.530Z,98759.34
2019-04-10T02:38:33.861Z,98759.38
2019-04-10T02:40:43.248Z,98760.84
2019-04-10T02:43:13.637Z,98757.84
2019-04-10T02:45:42.485Z,98756.95
2019-04-10T02:48:12.240Z,98756.89
2019-04-10T02:50:40.866Z,98753.86
2019-04-10T02:53:09.056Z,98748.39
2019-04-10T02:55:38.711Z,98740.44
2019-04-10T02:58:07.971Z,98740.22
2019-04-10T03:00:37.806Z,98744.05
2019-04-10T03:03:06.531Z,98743.95
2019-04-10T03:05:35.378Z,98742.86
2019-04-10T03:08:04.848Z,98745.83
2019-04-10T03:10:40.779Z,98747.97
2019-04-10T03:13:04.775Z,98749.45
2019-04-10T03:15:33.852Z,98753.56
2019-04-10T03:18:02.345Z,98754.44
2019-04-10T03:20:30.574Z,98756.57
2019-04-10T03:22:58.864Z,98757.23
2019-04-10T03:25:27.097Z,98758.19
2019-04-10T03:27:55.525Z,98766.97
2019-04-10T03:30:23.902Z,98762.88
2019-04-10T03:32:59.701Z,98759.20
2019-04-10T03:35:32.471Z,98764.19
2019-04-10T03:38:01.556Z,98761.00
2019-04-10T03:40:29.945Z,98769.88
2019-04-10T03:42:58.250Z,98759.38
2019-04-10T03:45:26.609Z,98762.80
2019-04-10T03:47:55.767Z,98765.91
2019-04-10T03:50:24.105Z,98764.06
2019-04-10T03:52:52.394Z,98770.02
2019-04-10T03:55:20.963Z,98763.67
2019-04-10T03:57:49.280Z,98765.47
2019-04-10T04:00:18.118Z,98766.97
2019-04-10T04:02:48.307Z,98766.47
2019-04-10T04:05:16.840Z,98769.22
2019-04-10T04:07:45.134Z,98768.05
2019-04-10T04:10:13.374Z,98773.36
2019-04-10T04:12:42.572Z,98776.09
2019-04-10T04:15:11.432Z,98777.45
2019-04-10T04:17:40.149Z,98779.00
2019-04-10T04:20:08.730Z,98777.36
2019-04-10T04:22:37.072Z,98773.78
2019-04-10T04:25:06.948Z,98774.22
2019-04-10T04:27:35.721Z,98777.65
2019-04-10T04:30:08.484Z,98776.11
2019-04-10T04:32:37.953Z,98776.77
2019-04-10T04:35:06.383Z,98778.18
2019-04-10T04:37:35.726Z,98775.97
2019-04-10T04:40:05.835Z,98777.86
2019-04-10T04:42:35.054Z,98776.59
2019-04-10T04:45:03.634Z,98772.05
2019-04-10T04:47:31.863Z,98778.30
2019-04-10T04:50:01.151Z,98771.31
2019-04-10T04:52:29.861Z,98779.13
2019-04-10T04:54:58.161Z,98781.47
2019-04-10T04:57:26.401Z,98780.39
2019-04-10T04:59:54.847Z,98774.78
2019-04-10T05:02:23.386Z,98780.63
2019-04-10T05:04:51.610Z,98781.48
2019-04-10T05:07:20.376Z,98783.34
2019-04-10T05:09:48.809Z,98786.06
2019-04-10T05:12:18.036Z,98792.76
2019-04-10T05:14:46.497Z,98791.55
2019-04-10T05:17:16.642Z,98793.72
2019-04-10T05:19:44.767Z,98795.55
2019-04-10T05:22:13.046Z,98797.59
2019-04-10T05:24:41.286Z,98796.78
2019-04-10T05:27:09.854Z,98806.56
2019-04-10T05:29:38.745Z,98808.50
2019-04-10T05:32:07.376Z,98813.93
2019-04-10T05:34:36.186Z,98815.45
2019-04-10T05:37:05.292Z,98816.80
2019-04-10T05:39:40.547Z,98818.31
2019-04-10T05:42:04.275Z,98816.34
2019-04-10T05:44:32.635Z,98822.43
2019-04-10T05:47:01.174Z,98832.66
2019-04-10T05:49:29.718Z,98828.94
2019-04-10T05:51:57.965Z,98827.81
2019-04-10T05:54:26.958Z,98828.55
2019-04-10T05:56:55.360Z,98837.38
2019-04-10T05:59:23.924Z,98835.55
2019-04-10T06:01:52.754Z,98837.60
2019-04-10T06:04:21.227Z,98845.69
2019-04-10T06:06:49.512Z,98850.36
2019-04-10T06:09:17.812Z,98855.42
2019-04-10T06:11:47.238Z,98856.86
2019-04-10T06:14:15.912Z,98861.09
2019-04-10T06:16:44.722Z,98858.98
2019-04-10T06:19:16.030Z,98860.26
2019-04-10T06:21:44.304Z,98866.22
2019-04-10T06:24:14.163Z,98864.25
2019-04-10T06:26:43.686Z,98864.33
2019-04-10T06:29:12.873Z,98866.98
2019-04-10T06:31:41.511Z,98873.91
2019-04-10T06:34:11.165Z,98872.94
2019-04-10T06:36:40.094Z,98872.37
2019-04-10T06:39:08.877Z,98873.78
2019-04-10T06:41:37.477Z,98873.63
2019-04-10T06:44:05.845Z,98874.83
2019-04-10T06:46:35.446Z,98880.94
2019-04-10T06:49:05.562Z,98883.13
2019-04-10T06:51:35.471Z,98882.63
2019-04-10T06:54:08.117Z,98887.85
2019-04-10T06:56:35.375Z,98888.89
2019-04-10T06:59:04.555Z,98883.12
2019-04-10T07:01:42.332Z,98885.76
2019-04-10T07:04:07.362Z,98890.98
2019-04-10T07:06:47.166Z,98893.08
2019-04-10T07:09:07.504Z,98897.09
2019-04-10T07:11:36.586Z,98891.11
2019-04-10T07:14:05.138Z,98895.92
2019-04-10T07:16:34.465Z,98888.98
2019-04-10T07:19:05.999Z,98891.70
2019-04-10T07:21:35.616Z,98890.98
2019-04-10T07:24:07.576Z,98893.60
2019-04-10T07:26:40.316Z,98891.91
2019-04-10T07:29:04.730Z,98887.80
2019-04-10T07:31:35.330Z,98887.44
2019-04-10T07:34:03.532Z,98886.08
2019-04-10T07:36:32.887Z,98884.23
2019-04-10T07:39:01.572Z,98877.09
2019-04-10T07:41:31.408Z,98880.27
2019-04-10T07:44:00.126Z,98892.21
2019-04-10T07:46:28.451Z,98886.54
2019-04-10T07:48:56.872Z,98894.44
2019-04-10T07:51:25.590Z,98893.09
2019-04-10T07:53:54.245Z,98896.16
2019-04-10T07:56:23.043Z,98892.48
2019-04-10T07:58:51.873Z,98894.22
2019-04-10T08:01:20.317Z,98896.03
2019-04-10T08:03:51.312Z,98891.41
2019-04-10T08:06:19.930Z,98897.64
2019-04-10T08:08:49.189Z,98897.40
2019-04-10T08:11:17.821Z,98900.00
2019-04-10T08:13:47.064Z,98905.92
2019-04-10T08:16:16.946Z,98908.67
2019-04-10T08:18:45.716Z,98903.71
2019-04-10T08:21:15.534Z,98910.13
2019-04-10T08:23:44.608Z,98910.64
2019-04-10T08:26:14.235Z,98909.73
2019-04-10T08:28:43.319Z,98919.47
2019-04-10T08:31:12.698Z,98909.86
2019-04-10T08:33:42.030Z,98918.14
2019-04-10T08:36:10.880Z,98918.95
2019-04-10T08:38:40.121Z,98917.86
2019-04-10T08:41:08.747Z,98913.95
2019-04-10T08:43:37.552Z,98919.55
2019-04-10T08:46:05.995Z,98921.20
2019-04-10T08:48:34.682Z,98914.80
2019-04-10T08:51:03.181Z,98912.01
2019-04-10T08:53:31.621Z,98918.72
2019-04-10T08:55:59.864Z,98926.08
2019-04-10T08:58:28.341Z,98928.29
2019-04-10T09:00:56.743Z,98922.28
2019-04-10T09:03:25.098Z,98924.61
2019-04-10T09:05:53.387Z,98929.64
2019-04-10T09:08:21.846Z,98933.55
2019-04-10T09:10:50.403Z,98933.99
2019-04-10T09:13:20.057Z,98933.87
2019-04-10T09:15:49.906Z,98930.59
2019-04-10T09:18:18.314Z,98928.69
2019-04-10T09:20:46.950Z,98922.86
2019-04-10T09:23:25.139Z,98931.41
2019-04-10T09:25:45.411Z,98933.49
2019-04-10T09:28:14.053Z,98929.67
2019-04-10T09:30:42.827Z,98927.66
2019-04-10T09:33:20.832Z,98925.16
2019-04-10T09:35:41.147Z,98932.73
2019-04-10T09:38:10.485Z,98916.70
2019-04-10T09:40:39.067Z,98923.86
2019-04-10T09:43:07.427Z,98921.69
2019-04-10T09:45:35.814Z,98920.00
2019-04-10T09:48:04.301Z,98921.55
2019-04-10T09:50:33.144Z,98919.63
2019-04-10T09:53:02.075Z,98921.72
2019-04-10T09:55:30.617Z,98917.94
2019-04-10T09:58:00.048Z,98922.17
2019-04-10T10:00:28.578Z,98909.63
2019-04-10T10:02:56.923Z,98900.62
2019-04-10T10:05:26.467Z,98904.18
2019-04-10T10:07:56.129Z,98910.56
2019-04-10T10:10:25.140Z,98909.42
2019-04-10T10:12:53.764Z,98907.47
2019-04-10T10:15:22.210Z,98912.64
2019-04-10T10:17:50.506Z,98906.80
2019-04-10T10:20:19.654Z,98919.11
2019-04-10T10:22:48.161Z,98919.30
2019-04-10T10:25:17.392Z,98912.44
2019-04-10T10:27:46.845Z,98909.08
2019-04-10T10:30:15.628Z,98912.94
2019-04-10T10:32:43.970Z,98911.70
2019-04-10T10:35:12.313Z,98913.24
2019-04-10T10:37:41.058Z,98913.42
2019-04-10T10:40:10.159Z,98915.98
2019-04-10T10:42:39.825Z,98915.42
2019-04-10T10:45:10.495Z,98919.73
2019-04-10T10:47:40.212Z,98915.23
2019-04-10T10:50:09.057Z,98913.38
2019-04-10T10:52:37.294Z,98925.06
2019-04-10T10:55:05.894Z,98912.18
2019-04-10T10:57:35.250Z,98907.48
2019-04-10T11:00:08.398Z,98911.37
2019-04-10T11:02:37.956Z,98909.67
2019-04-10T11:05:08.724Z,98913.48
2019-04-10T11:07:38.684Z,98909.32
2019-04-10T11:10:08.494Z,98909.30
2019-04-10T11:12:38.420Z,98912.84
2019-04-10T11:15:07.820Z,98910.53
2019-04-10T11:17:36.470Z,98899.78
2019-04-10T11:20:08.224Z,98918.55
2019-04-10T11:22:37.673Z,98916.55
2019-04-10T11:25:07.744Z,98912.19
2019-04-10T11:27:36.577Z,98909.74
2019-04-10T11:30:08.255Z,98905.05
2019-04-10T11:32:38.190Z,98903.50
2019-04-10T11:35:07.656Z,98904.24
2019-04-10T11:37:43.510Z,98903.41
2019-04-10T11:40:08.091Z,98912.26
2019-04-10T11:42:37.220Z,98907.96
2019-04-10T11:45:08.091Z,98904.93
2019-04-10T11:47:37.072Z,98899.45
2019-04-10T11:50:13.004Z,98899.88
2019-04-10T11:52:44.624Z,98898.57
2019-04-10T11:55:13.770Z,98903.39
2019-04-10T11:57:37.948Z,98908.09
2019-04-10T12:00:12.247Z,98912.89
2019-04-10T12:02:39.730Z,98911.91
2019-04-10T12:05:12.027Z,98913.53
2019-04-10T12:08:18.175Z,98907.42
2019-04-10T12:12:39.277Z,98910.79
2019-04-10T12:15:08.166Z,98908.95
2019-04-10T12:17:36.404Z,98910.28
2019-04-10T12:20:06.951Z,98912.39
2019-04-10T12:22:35.860Z,98914.58
2019-04-10T12:25:06.858Z,98912.31
2019-04-10T12:27:35.267Z,98902.44
2019-04-10T12:30:06.858Z,98911.25
2019-04-10T12:32:35.481Z,98913.54
2019-04-10T12:35:06.845Z,98915.09
2019-04-10T12:37:35.307Z,98919.77
2019-04-10T12:40:06.131Z,98910.08
2019-04-10T12:42:34.592Z,98915.86
2019-04-10T12:45:04.649Z,98917.55
2019-04-10T12:47:32.963Z,98907.89
2019-04-10T12:50:01.239Z,98916.30
2019-04-10T12:52:30.283Z,98917.56
2019-04-10T12:54:59.574Z,98911.52
2019-04-10T12:57:28.646Z,98906.89
2019-04-10T13:00:02.420Z,98904.22
2019-04-10T13:02:28.099Z,98910.35
2019-04-10T13:04:56.775Z,98908.98
2019-04-10T13:07:25.112Z,98907.17
2019-04-10T13:09:53.944Z,98923.41
2019-04-10T13:12:23.003Z,98917.55
2019-04-10T13:14:51.728Z,98914.34
2019-04-10T13:17:20.437Z,98905.96
2019-04-10T13:19:49.242Z,98907.72
2019-04-10T13:22:18.013Z,98904.71
2019-04-10T13:24:46.580Z,98909.99
2019-04-10T13:27:14.819Z,98907.50
2019-04-10T13:29:44.598Z,98912.28
2019-04-10T13:32:13.892Z,98908.25
2019-04-10T13:34:43.615Z,98907.43
2019-04-10T13:37:12.417Z,98903.03
2019-04-10T13:39:41.330Z,98910.96
2019-04-10T13:42:09.826Z,98901.72
2019-04-10T13:44:38.430Z,98908.83
2019-04-10T13:47:07.129Z,98896.17
2019-04-10T13:49:35.746Z,98899.25
2019-04-10T13:52:04.213Z,98902.66
2019-04-10T13:54:32.621Z,98901.29
2019-04-10T13:57:01.519Z,98907.86
2019-04-10T13:59:31.073Z,98907.37
2019-04-10T14:02:00.581Z,98903.84
2019-04-10T14:04:29.249Z,98906.78
2019-04-10T14:06:57.805Z,98907.74
2019-04-10T14:09:38.004Z,98905.23
2019-04-10T14:11:56.286Z,98892.26
2019-04-10T14:14:24.863Z,98898.11
2019-04-10T14:16:53.163Z,98899.38
2019-04-10T14:19:21.655Z,98897.09
2019-04-10T14:21:50.000Z,98907.66
2019-04-10T14:24:19.891Z,98910.70
2019-04-10T14:27:06.135Z,98906.69
2019-04-10T14:29:34.601Z,98908.06
2019-04-10T14:32:05.138Z,98914.16
2019-04-10T14:34:34.507Z,98915.33
2019-04-10T14:37:03.469Z,98911.84
2019-04-10T14:39:32.110Z,98921.52
2019-04-10T14:42:00.339Z,98923.27
2019-04-10T14:44:28.790Z,98924.09
2019-04-10T14:46:58.029Z,98926.78
2019-04-10T14:49:27.238Z,98928.47
2019-04-10T14:51:56.721Z,98929.34
2019-04-10T14:54:26.035Z,98927.16
2019-04-10T14:56:54.640Z,98926.34
2019-04-10T14:59:24.033Z,98920.81
2019-04-10T15:01:52.662Z,98918.56
2019-04-10T15:04:21.373Z,98926.04
2019-04-10T15:06:50.069Z,98924.28
2019-04-10T15:09:25.382Z,98927.78
2019-04-10T15:11:51.048Z,98927.25
2019-04-10T15:14:19.723Z,98923.77
2019-04-10T15:16:54.452Z,98930.32
2019-04-10T15:19:18.528Z,98924.88
2019-04-10T15:21:47.134Z,98928.81
2019-04-10T15:24:15.706Z,98927.94
2019-04-10T15:26:44.591Z,98930.14
2019-04-10T15:29:12.955Z,98925.84
2019-04-10T15:31:41.796Z,98922.88
2019-04-10T15:34:10.447Z,98925.27
2019-04-10T15:36:38.837Z,98914.30
2019-04-10T15:39:08.686Z,98923.55
2019-04-10T15:41:37.160Z,98924.83
2019-04-10T15:44:05.784Z,98931.82
2019-04-10T15:46:35.289Z,98926.03
2019-04-10T15:49:03.681Z,98928.16
2019-04-10T15:51:32.281Z,98933.81
2019-04-10T15:54:01.250Z,98933.31
2019-04-10T15:56:29.947Z,98934.62
2019-04-10T15:58:58.272Z,98938.09
2019-04-10T16:01:28.398Z,98936.30
2019-04-10T16:03:56.952Z,98940.63
2019-04-10T16:06:25.209Z,98938.05
2019-04-10T16:08:53.657Z,98942.84
2019-04-10T16:11:36.196Z,98939.75
2019-04-10T16:14:16.860Z,98942.91
2019-04-10T16:16:37.872Z,98941.23
2019-04-10T16:19:10.625Z,98944.84
2019-04-10T16:21:38.870Z,98943.56
2019-04-10T16:24:17.949Z,98947.09
2019-04-10T16:26:46.179Z,98936.59
2019-04-10T16:29:14.712Z,98938.38
2019-04-10T16:31:44.020Z,98946.23
2019-04-10T16:34:13.528Z,98943.08
2019-04-10T16:36:42.116Z,98939.91
2019-04-10T16:39:15.445Z,98941.21
2019-04-10T16:41:44.073Z,98946.88
2019-04-10T16:44:13.036Z,98951.72
2019-04-10T16:46:42.504Z,98953.44
2019-04-10T16:49:10.809Z,98951.23
2019-04-10T16:51:40.527Z,98952.06
2019-04-10T16:54:08.937Z,98950.75
2019-04-10T16:56:38.045Z,98953.00
2019-04-10T16:59:06.687Z,98962.14
2019-04-10T17:01:36.913Z,98958.88
2019-04-10T17:04:05.560Z,98956.23
2019-04-10T17:06:34.490Z,98960.55
2019-04-10T17:09:03.015Z,98959.17
2019-04-10T17:11:32.016Z,98966.25
2019-04-10T17:14:00.627Z,98966.26
2019-04-10T17:16:29.421Z,98965.73
2019-04-10T17:18:58.003Z,98963.93
2019-04-10T17:21:28.200Z,98964.80
2019-04-10T17:23:56.698Z,98966.53
2019-04-10T17:26:25.106Z,98966.00
2019-04-10T17:28:53.471Z,98969.06
2019-04-10T17:31:22.464Z,98968.58
2019-04-10T17:33:50.849Z,98963.65
2019-04-10T17:36:19.371Z,98968.00
2019-04-10T17:38:48.983Z,98975.47
2019-04-10T17:41:17.796Z,98979.73
2019-04-10T17:43:47.412Z,98973.08
2019-04-10T17:46:17.261Z,98978.31
2019-04-10T17:48:46.184Z,98973.35
2019-04-10T17:51:14.967Z,98976.25
2019-04-10T17:53:43.233Z,98980.44
2019-04-10T17:56:11.818Z,98978.11
2019-04-10T17:58:40.072Z,98982.02
2019-04-10T18:01:16.716Z,98986.23
2019-04-10T18:03:51.661Z,98994.48
2019-04-10T18:06:15.314Z,98993.20
2019-04-10T18:08:43.652Z,98991.34
2019-04-10T18:11:12.110Z,99003.97
2019-04-10T18:13:40.591Z,99006.97
2019-04-10T18:16:08.942Z,99012.86
2019-04-10T18:18:37.999Z,99018.47
2019-04-10T18:21:06.667Z,99021.80
2019-04-10T18:23:35.594Z,99027.19
2019-04-10T18:26:04.585Z,99027.05
2019-04-10T18:28:33.990Z,99029.44
2019-04-10T18:31:02.987Z,99034.23
2019-04-10T18:33:31.258Z,99041.66
2019-04-10T18:35:59.545Z,99043.25
2019-04-10T18:38:27.894Z,99050.48
2019-04-10T18:41:02.269Z,99052.12
2019-04-10T18:43:27.021Z,99056.33
2019-04-10T18:46:06.150Z,99059.59
2019-04-10T18:48:25.336Z,99057.86
2019-04-10T18:50:53.814Z,99058.60
2019-04-10T18:53:22.662Z,99059.67
2019-04-10T18:55:50.898Z,99064.90
2019-04-10T18:58:21.248Z,99070.53
2019-04-10T19:00:54.586Z,99070.45
2019-04-10T19:03:48.089Z,99072.86
2019-04-10T19:06:08.050Z,99075.44
2019-04-10T19:08:37.464Z,99070.44
2019-04-10T19:11:16.947Z,99073.52
2019-04-10T19:13:36.147Z,99076.06
2019-04-10T19:16:05.533Z,99075.45
2019-04-10T19:18:34.048Z,99081.19
2019-04-10T19:21:03.222Z,99083.36
2019-04-10T19:23:33.024Z,99087.72
2019-04-10T19:26:01.753Z,99085.06
2019-04-10T19:28:36.972Z,99087.91
2019-04-10T19:31:08.618Z,99090.26
2019-04-10T19:33:31.650Z,99085.16
2019-04-10T19:35:59.965Z,99096.02
2019-04-10T19:38:29.355Z,99094.63
2019-04-10T19:40:58.446Z,99101.83
2019-04-10T19:43:28.968Z,99099.28
2019-04-10T19:45:58.422Z,99103.89
2019-04-10T19:48:27.618Z,99102.20
2019-04-10T19:50:57.384Z,99103.61
2019-04-10T19:53:26.930Z,99107.06
2019-04-10T19:55:56.038Z,99113.75
2019-04-10T19:58:24.418Z,99112.70
2019-04-10T20:00:52.835Z,99115.31
2019-04-10T20:03:21.630Z,99115.67
2019-04-10T20:05:51.241Z,99119.98
2019-04-10T20:08:19.825Z,99122.21
2019-04-10T20:10:48.057Z,99128.11
2019-04-10T20:13:16.628Z,99127.16
2019-04-10T20:15:44.876Z,99120.77
2019-04-10T20:18:13.258Z,99123.86
2019-04-10T20:20:41.640Z,99134.91
2019-04-10T20:23:09.987Z,99136.19
2019-04-10T20:25:38.801Z,99136.48
2019-04-10T20:28:07.073Z,99137.05
2019-04-10T20:30:35.431Z,99139.51
2019-04-10T20:33:03.664Z,99143.22
2019-04-10T20:35:32.092Z,99146.89
2019-04-10T20:38:01.019Z,99146.11
2019-04-10T20:40:29.767Z,99149.66
2019-04-10T20:42:58.408Z,99154.84
2019-04-10T20:45:27.412Z,99154.05
2019-04-10T20:47:56.109Z,99149.06
2019-04-10T20:50:25.908Z,99157.13
2019-04-10T20:52:54.310Z,99153.06
2019-04-10T20:55:23.773Z,99157.33
2019-04-10T20:57:52.195Z,99158.24
2019-04-10T21:00:27.595Z,99153.09
2019-04-10T21:02:55.827Z,99158.34
2019-04-10T21:05:24.134Z,99162.19
2019-04-10T21:07:52.359Z,99166.58
2019-04-10T21:10:21.352Z,99164.94
2019-04-10T21:12:50.466Z,99171.56
2019-04-10T21:15:19.563Z,99163.95
2019-04-10T21:17:48.695Z,99171.00
2019-04-10T21:20:18.149Z,99180.09
2019-04-10T21:22:47.250Z,99177.36
2019-04-10T21:25:16.951Z,99183.08
2019-04-10T21:27:48.536Z,99178.83
2019-04-10T21:30:19.982Z,99188.31
2019-04-10T21:33:05.947Z,99188.77
2019-04-10T21:35:35.838Z,99194.97
2019-04-10T21:38:04.771Z,99198.59
2019-04-10T21:40:33.424Z,99195.73
2019-04-10T21:43:01.748Z,99201.51
2019-04-10T21:45:29.953Z,99201.90
2019-04-10T21:47:58.222Z,99198.24
2019-04-10T21:50:26.993Z,99197.78
2019-04-10T21:52:55.546Z,99198.56
2019-04-10T21:55:23.944Z,99201.30
2019-04-10T21:57:52.188Z,99202.47
2019-04-10T22:00:22.100Z,99208.45
2019-04-10T22:02:50.338Z,99202.31
2019-04-10T22:05:19.813Z,99200.64
2019-04-10T22:07:50.281Z,99204.02
2019-04-10T22:10:36.304Z,99196.16
2019-04-10T22:13:05.792Z,99195.77
2019-04-10T22:15:42.176Z,99199.94
2019-04-10T22:18:10.407Z,99199.26
2019-04-10T22:20:39.534Z,99197.53
2019-04-10T22:23:08.089Z,99198.06
2019-04-10T22:25:37.364Z,99204.59
2019-04-10T22:28:06.371Z,99204.52
2019-04-10T22:30:35.049Z,99205.09
2019-04-10T22:33:03.454Z,99196.39
2019-04-10T22:35:31.727Z,99207.39
2019-04-10T22:38:00.392Z,99206.91
2019-04-10T22:40:29.167Z,99207.30
2019-04-10T22:42:57.591Z,99206.65
2019-04-10T22:45:27.942Z,99202.60
2019-04-10T22:47:58.344Z,99213.09
2019-04-10T22:50:27.538Z,99208.06
2019-04-10T22:52:56.979Z,99209.30
2019-04-10T22:55:26.059Z,99218.07
2019-04-10T22:57:54.842Z,99212.12
2019-04-10T23:00:28.038Z,99215.62
2019-04-10T23:02:57.270Z,99215.62
2019-04-10T23:05:26.740Z,99221.70
2019-04-10T23:07:55.564Z,99219.72
2019-04-10T23:10:24.736Z,99215.79
2019-04-10T23:13:00.039Z,99225.95
2019-04-10T23:15:23.283Z,99217.27
2019-04-10T23:17:51.541Z,99227.70
2019-04-10T23:20:19.821Z,99220.19
2019-04-10T23:22:48.748Z,99224.66
2019-04-10T23:25:18.290Z,99228.39
2019-04-10T23:27:46.819Z,99232.01
2019-04-10T23:30:17.209Z,99224.69
2019-04-10T23:32:47.840Z,99227.77
2019-04-10T23:35:17.107Z,99235.62
2019-04-10T23:37:45.540Z,99231.70
2019-04-10T23:40:16.871Z,99235.16
2019-04-10T23:42:46.350Z,99231.91
2019-04-10T23:45:15.552Z,99234.11
2019-04-10T23:47:44.460Z,99242.42
2019-04-10T23:50:12.940Z,99239.97
2019-04-10T23:52:42.219Z,99245.48
2019-04-10T23:55:10.632Z,99239.41
2019-04-10T23:57:38.901Z,99247.56
